CTM85 LFPG-LIMC
Flight info
| Callsign | CTM85 |
|---|---|
| Flight time | N/A |
| Altitude | 33000 |
| Route | LANVI DCT DEVDI DCT BASGO Z424 RIXUV |
| Aircraft | A400/H-SDFGHIRWXYLB1/L4T |
Departure
| Time | 2026-05-04 15:09 |
|---|---|
| Airport | Charles de Gaulle International Airport (LFPG) |
Arrival
| Time | N/A |
|---|---|
| Airport | Milan Malpensa International Airport (LIMC) |
| Time | Latitude | Longitude | Altitude | Speed | Heading |
|---|---|---|---|---|---|
| 2026-05-04 14:50 | 49.01092 | 2.54111 | 361 ft | 0 kts | 175° |
| 2026-05-04 14:55 | 49.01100 | 2.54110 | 368 ft | 4 kts | 175° |
| 2026-05-04 14:56 | 49.01127 | 2.54107 | 365 ft | 4 kts | 176° |
| 2026-05-04 14:56 | 49.01149 | 2.54104 | 364 ft | 4 kts | 172° |
| 2026-05-04 14:56 | 49.01173 | 2.54091 | 367 ft | 4 kts | 132° |
| 2026-05-04 14:56 | 49.01184 | 2.54058 | 366 ft | 4 kts | 91° |
| 2026-05-04 14:57 | 49.01183 | 2.54019 | 370 ft | 4 kts | 85° |
| 2026-05-04 14:57 | 49.01182 | 2.54008 | 369 ft | 2 kts | 85° |
| 2026-05-04 14:59 | 49.01183 | 2.54019 | 370 ft | 3 kts | 85° |
| 2026-05-04 15:00 | 49.01186 | 2.54081 | 360 ft | 9 kts | 86° |
| 2026-05-04 15:00 | 49.01192 | 2.54228 | 350 ft | 17 kts | 86° |
| 2026-05-04 15:00 | 49.01200 | 2.54366 | 368 ft | 7 kts | 84° |
| 2026-05-04 15:01 | 49.01206 | 2.54472 | 367 ft | 6 kts | 84° |
| 2026-05-04 15:01 | 49.01210 | 2.54540 | 369 ft | 7 kts | 84° |
| 2026-05-04 15:01 | 49.01215 | 2.54625 | 369 ft | 9 kts | 85° |
| 2026-05-04 15:01 | 49.01221 | 2.54730 | 367 ft | 11 kts | 85° |
| 2026-05-04 15:02 | 49.01227 | 2.54856 | 368 ft | 13 kts | 85° |
| 2026-05-04 15:02 | 49.01234 | 2.54997 | 367 ft | 14 kts | 86° |
| 2026-05-04 15:02 | 49.01244 | 2.55148 | 370 ft | 14 kts | 70° |
| 2026-05-04 15:02 | 49.01326 | 2.55223 | 370 ft | 15 kts | 6° |
| 2026-05-04 15:03 | 49.01434 | 2.55184 | 367 ft | 17 kts | 347° |
| 2026-05-04 15:03 | 49.01560 | 2.55162 | 369 ft | 19 kts | 356° |
| 2026-05-04 15:03 | 49.01699 | 2.55148 | 367 ft | 21 kts | 355° |
| 2026-05-04 15:03 | 49.01845 | 2.55124 | 368 ft | 22 kts | 347° |
| 2026-05-04 15:04 | 49.01934 | 2.55079 | 367 ft | 3 kts | 320° |
| 2026-05-04 15:04 | 49.01943 | 2.55064 | 369 ft | 5 kts | 306° |
| 2026-05-04 15:04 | 49.01946 | 2.54982 | 371 ft | 11 kts | 263° |
| 2026-05-04 15:04 | 49.01935 | 2.54841 | 367 ft | 16 kts | 263° |
| 2026-05-04 15:05 | 49.01921 | 2.54658 | 365 ft | 19 kts | 264° |
| 2026-05-04 15:05 | 49.01917 | 2.54442 | 370 ft | 22 kts | 266° |
| 2026-05-04 15:05 | 49.01904 | 2.54203 | 368 ft | 23 kts | 265° |
| 2026-05-04 15:05 | 49.01890 | 2.53949 | 369 ft | 25 kts | 265° |
| 2026-05-04 15:06 | 49.01874 | 2.53692 | 370 ft | 25 kts | 264° |
| 2026-05-04 15:06 | 49.01857 | 2.53425 | 364 ft | 26 kts | 265° |
| 2026-05-04 15:06 | 49.01845 | 2.53156 | 370 ft | 25 kts | 266° |
| 2026-05-04 15:07 | 49.01820 | 2.52643 | 367 ft | 24 kts | 264° |
| 2026-05-04 15:07 | 49.01808 | 2.52402 | 364 ft | 19 kts | 283° |
| 2026-05-04 15:07 | 49.01883 | 2.52354 | 371 ft | 14 kts | 355° |
| 2026-05-04 15:07 | 49.01995 | 2.52341 | 367 ft | 18 kts | 356° |
| 2026-05-04 15:08 | 49.02119 | 2.52337 | 367 ft | 6 kts | 25° |
| 2026-05-04 15:08 | 49.02122 | 2.52378 | 368 ft | 6 kts | 87° |
| 2026-05-04 15:08 | 49.02125 | 2.52451 | 365 ft | 8 kts | 86° |
| 2026-05-04 15:08 | 49.02140 | 2.52760 | 365 ft | 80 kts | 84° |
| 2026-05-04 15:09 | 49.02220 | 2.54225 | 423 ft | 181 kts | 86° |
| 2026-05-04 15:09 | 49.02336 | 2.56314 | 1039 ft | 209 kts | 85° |
| 2026-05-04 15:09 | 49.02469 | 2.58655 | 1847 ft | 233 kts | 85° |
| 2026-05-04 15:10 | 49.02742 | 2.63885 | 4137 ft | 255 kts | 85° |
| 2026-05-04 15:10 | 49.02883 | 2.66613 | 5533 ft | 261 kts | 85° |
| 2026-05-04 15:10 | 49.03173 | 2.72274 | 8223 ft | 275 kts | 86° |
| 2026-05-04 15:11 | 49.03316 | 2.75203 | 9563 ft | 281 kts | 86° |
| 2026-05-04 15:11 | 49.03461 | 2.78184 | 10643 ft | 293 kts | 87° |
| 2026-05-04 15:11 | 49.03618 | 2.81460 | 11318 ft | 317 kts | 86° |
| 2026-05-04 15:11 | 49.03779 | 2.84842 | 12069 ft | 331 kts | 86° |
| 2026-05-04 15:12 | 49.03948 | 2.88371 | 12980 ft | 337 kts | 86° |
| 2026-05-04 15:12 | 49.04114 | 2.91967 | 13886 ft | 342 kts | 88° |
| 2026-05-04 15:12 | 49.03991 | 2.95596 | 14666 ft | 347 kts | 99° |
| 2026-05-04 15:12 | 49.03474 | 2.99219 | 15455 ft | 352 kts | 105° |
| 2026-05-04 15:13 | 49.02852 | 3.02866 | 16241 ft | 357 kts | 106° |
| 2026-05-04 15:13 | 49.02209 | 3.06551 | 17022 ft | 362 kts | 106° |
| 2026-05-04 15:13 | 49.01559 | 3.10285 | 17743 ft | 369 kts | 107° |
| 2026-05-04 15:13 | 49.00897 | 3.14104 | 18430 ft | 375 kts | 107° |
| 2026-05-04 15:14 | 49.00229 | 3.17970 | 19127 ft | 380 kts | 107° |
| 2026-05-04 15:14 | 48.99556 | 3.21872 | 19863 ft | 383 kts | 107° |
| 2026-05-04 15:14 | 48.98875 | 3.25816 | 20587 ft | 387 kts | 107° |
| 2026-05-04 15:14 | 48.98196 | 3.29743 | 21301 ft | 391 kts | 107° |
| 2026-05-04 15:15 | 48.97497 | 3.33771 | 22010 ft | 395 kts | 108° |
| 2026-05-04 15:15 | 48.96792 | 3.37833 | 22710 ft | 399 kts | 108° |
| 2026-05-04 15:15 | 48.96077 | 3.41937 | 23405 ft | 403 kts | 108° |
| 2026-05-04 15:16 | 48.94623 | 3.50264 | 24498 ft | 410 kts | 108° |
| 2026-05-04 15:16 | 48.93950 | 3.54503 | 24981 ft | 417 kts | 104° |
| 2026-05-04 15:16 | 48.93335 | 3.63389 | 25924 ft | 425 kts | 99° |
| 2026-05-04 15:17 | 48.93105 | 3.67893 | 26393 ft | 428 kts | 99° |
| 2026-05-04 15:17 | 48.92637 | 3.76946 | 27339 ft | 430 kts | 99° |
| 2026-05-04 15:17 | 48.92396 | 3.81478 | 27919 ft | 429 kts | 99° |
| 2026-05-04 15:18 | 48.92154 | 3.85989 | 28485 ft | 427 kts | 99° |
| 2026-05-04 15:18 | 48.91909 | 3.90481 | 29074 ft | 426 kts | 99° |
| 2026-05-04 15:18 | 48.91662 | 3.94968 | 29684 ft | 424 kts | 99° |
| 2026-05-04 15:19 | 48.91167 | 4.03866 | 30786 ft | 422 kts | 100° |
| 2026-05-04 15:19 | 48.90917 | 4.08305 | 31302 ft | 421 kts | 100° |
| 2026-05-04 15:19 | 48.90386 | 4.17132 | 32360 ft | 417 kts | 103° |
| 2026-05-04 15:20 | 48.89856 | 4.21369 | 32894 ft | 410 kts | 110° |
| 2026-05-04 15:20 | 48.88955 | 4.25432 | 33476 ft | 403 kts | 119° |
| 2026-05-04 15:20 | 48.87718 | 4.29270 | 34044 ft | 397 kts | 124° |
| 2026-05-04 15:20 | 48.86388 | 4.32943 | 34534 ft | 396 kts | 125° |
| 2026-05-04 15:21 | 48.85045 | 4.36583 | 34869 ft | 396 kts | 125° |
| 2026-05-04 15:21 | 48.83711 | 4.40191 | 35007 ft | 398 kts | 125° |
| 2026-05-04 15:22 | 48.79654 | 4.51200 | 34960 ft | 398 kts | 125° |
| 2026-05-04 15:22 | 48.75594 | 4.62200 | 34960 ft | 398 kts | 125° |
| 2026-05-04 15:23 | 48.72884 | 4.69519 | 34964 ft | 398 kts | 125° |
| 2026-05-04 15:23 | 48.70171 | 4.76826 | 34965 ft | 398 kts | 125° |
| 2026-05-04 15:24 | 48.64739 | 4.91399 | 34969 ft | 396 kts | 125° |
| 2026-05-04 15:25 | 48.62040 | 4.98609 | 34964 ft | 396 kts | 125° |
| 2026-05-04 15:26 | 48.57962 | 5.09466 | 34965 ft | 396 kts | 126° |
| 2026-05-04 15:26 | 48.53870 | 5.20313 | 34950 ft | 396 kts | 126° |
| 2026-05-04 15:27 | 48.49752 | 5.31184 | 34971 ft | 399 kts | 126° |
| 2026-05-04 15:28 | 48.45626 | 5.42038 | 34981 ft | 399 kts | 126° |
| 2026-05-04 15:29 | 48.41474 | 5.52912 | 34984 ft | 399 kts | 126° |
| 2026-05-04 15:30 | 48.31736 | 5.78244 | 34995 ft | 400 kts | 126° |
| 2026-05-04 15:31 | 48.27977 | 5.89460 | 34993 ft | 404 kts | 121° |
| 2026-05-04 15:32 | 48.22005 | 6.08553 | 34996 ft | 404 kts | 121° |
| 2026-05-04 15:34 | 48.15919 | 6.27515 | 35000 ft | 404 kts | 122° |
| 2026-05-04 15:34 | 48.12249 | 6.38879 | 35007 ft | 404 kts | 122° |
| 2026-05-04 15:35 | 48.08585 | 6.50179 | 35006 ft | 404 kts | 122° |
| 2026-05-04 15:36 | 48.04895 | 6.61509 | 35007 ft | 404 kts | 122° |
| 2026-05-04 15:36 | 48.02431 | 6.69048 | 35010 ft | 404 kts | 122° |
| 2026-05-04 15:37 | 47.99956 | 6.76596 | 35007 ft | 404 kts | 122° |
| 2026-05-04 15:37 | 47.97896 | 6.82862 | 34989 ft | 405 kts | 122° |
| 2026-05-04 15:38 | 47.95407 | 6.90410 | 35000 ft | 406 kts | 122° |
| 2026-05-04 15:38 | 47.92909 | 6.97965 | 34997 ft | 406 kts | 122° |
| 2026-05-04 15:39 | 47.90407 | 7.05512 | 34997 ft | 406 kts | 122° |
| 2026-05-04 15:40 | 47.86662 | 7.16766 | 34992 ft | 406 kts | 122° |
| 2026-05-04 15:40 | 47.84125 | 7.24357 | 35004 ft | 408 kts | 122° |
| 2026-05-04 15:41 | 47.81605 | 7.31875 | 34982 ft | 409 kts | 122° |
| 2026-05-04 15:41 | 47.79063 | 7.39444 | 34982 ft | 409 kts | 122° |
| 2026-05-04 15:42 | 47.76519 | 7.46995 | 34985 ft | 409 kts | 122° |
| 2026-05-04 15:42 | 47.73333 | 7.53799 | 35015 ft | 396 kts | 142° |
| 2026-05-04 15:42 | 47.71177 | 7.56259 | 35017 ft | 387 kts | 154° |
| 2026-05-04 15:43 | 47.68810 | 7.58142 | 34998 ft | 385 kts | 158° |